Time;durP1;ratioP1;P1;durP2;ratioP2;P2;SDS_P1;SDS_P2;PMS_P1;PMS_P2;Temp;Humidity;BMP_temperature;BMP_pressure;BME280_temperature;BME280_humidity;BME280_pressure;Samples;Min_cycle;Max_cycle;Signal;HPM_P1;HPM_P2
2022/11/04 00:01:33;;;;;;;8.10;7.70;;;10.20;99.90;;;;;;5046487;28;20466;-68
2022/11/04 00:04:00;;;;;;;7.37;7.07;;;10.20;99.90;;;;;;5047139;28;20472;-68
2022/11/04 00:06:28;;;;;;;8.23;7.73;;;10.30;99.90;;;;;;5043135;28;20464;-69
2022/11/04 00:08:57;;;;;;;8.40;8.00;;;10.30;99.90;;;;;;5048364;28;20459;-67
2022/11/04 00:14:10;;;;;;;7.93;7.50;;;10.40;99.90;;;;;;5042702;28;20591;-69
2022/11/04 00:19:22;;;;;;;7.50;7.10;;;10.40;99.90;;;;;;5038323;28;20493;-67
2022/11/04 00:30:17;;;;;;;7.63;7.03;;;10.60;99.90;;;;;;4962366;28;20538;-69
2022/11/04 00:35:29;;;;;;;8.07;7.27;;;10.60;99.90;;;;;;5045443;28;20967;-68
2022/11/04 00:37:57;;;;;;;7.73;7.13;;;10.60;99.90;;;;;;5041084;28;20465;-69
2022/11/04 00:40:24;;;;;;;8.50;7.77;;;10.60;99.90;;;;;;5046063;28;20459;-68
2022/11/04 00:42:50;;;;;;;8.10;7.50;;;10.60;99.90;;;;;;5045996;28;20474;-69
2022/11/04 00:45:17;;;;;;;8.70;7.90;;;10.50;99.90;;;;;;5048538;28;20860;-68
2022/11/04 00:47:45;;;;;;;8.90;8.10;;;10.50;99.90;;;;;;5045328;28;20479;-67
2022/11/04 00:50:12;;;;;;;8.40;7.70;;;10.50;99.90;;;;;;5044929;28;20506;-69
2022/11/04 00:52:39;;;;;;;8.30;7.70;;;10.40;99.90;;;;;;5045894;28;20462;-69
2022/11/04 00:55:08;;;;;;;8.17;7.47;;;10.40;99.90;;;;;;5046158;28;20487;-67
2022/11/04 00:57:35;;;;;;;7.90;7.20;;;10.40;99.90;;;;;;5046818;28;20460;-68
2022/11/04 01:00:03;;;;;;;10.73;6.93;;;10.40;99.90;;;;;;5043635;28;20471;-69
2022/11/04 01:02:30;;;;;;;7.77;7.10;;;10.40;99.90;;;;;;5040154;28;20460;-68
2022/11/04 01:04:56;;;;;;;7.77;7.07;;;10.30;99.90;;;;;;5042028;28;21010;-67
2022/11/04 01:07:23;;;;;;;7.37;6.87;;;10.20;99.90;;;;;;5042592;28;20808;-68
2022/11/04 01:09:50;;;;;;;7.93;7.33;;;10.10;99.90;;;;;;5045561;28;20483;-70
2022/11/04 01:12:19;;;;;;;8.70;8.00;;;10.00;99.90;;;;;;5045933;28;20875;-68
2022/11/04 01:14:48;;;;;;;7.30;6.80;;;10.00;99.90;;;;;;5043123;28;20830;-67
2022/11/04 01:17:15;;;;;;;8.07;7.43;;;10.00;99.90;;;;;;5045864;28;20470;-68
2022/11/04 01:19:43;;;;;;;9.77;8.87;;;9.90;99.90;;;;;;5045220;28;21012;-69
2022/11/04 01:22:11;;;;;;;8.40;7.70;;;9.90;99.90;;;;;;5045651;28;20578;-69
2022/11/04 01:24:37;;;;;;;8.00;7.60;;;9.80;99.90;;;;;;5037780;28;20484;-68
2022/11/04 01:27:04;;;;;;;7.83;7.23;;;9.80;99.90;;;;;;5045650;28;20459;-69
2022/11/04 01:29:33;;;;;;;8.53;7.87;;;9.70;99.90;;;;;;5046190;28;20973;-69
2022/11/04 01:31:59;;;;;;;8.13;7.30;;;9.70;99.90;;;;;;5045154;28;20491;-67
2022/11/04 01:34:27;;;;;;;8.57;7.80;;;9.60;99.90;;;;;;5045583;28;20610;-68
2022/11/04 01:36:54;;;;;;;8.00;7.50;;;9.60;99.90;;;;;;5040998;28;20966;-68
2022/11/04 01:39:21;;;;;;;8.50;7.80;;;9.50;99.90;;;;;;5044785;28;20456;-68
2022/11/04 01:41:47;;;;;;;8.60;7.97;;;9.50;99.90;;;;;;5045592;28;20539;-67
2022/11/04 01:44:51;;;;;;;8.43;7.80;;;9.40;99.90;;;;;;5047088;28;20456;-67
2022/11/04 01:47:20;;;;;;;8.70;8.17;;;9.40;99.90;;;;;;5036092;28;20914;-67
2022/11/04 01:49:50;;;;;;;9.00;8.20;;;9.30;99.90;;;;;;5043340;28;20467;-67
2022/11/04 01:52:24;;;;;;;8.77;7.97;;;9.20;99.90;;;;;;5045451;28;20470;-67
2022/11/04 01:54:54;;;;;;;8.23;7.63;;;9.20;99.90;;;;;;5046131;28;20897;-68
2022/11/04 01:57:25;;;;;;;9.33;7.20;;;9.20;99.90;;;;;;5041972;28;20468;-67
2022/11/04 01:59:54;;;;;;;7.60;7.00;;;9.20;99.90;;;;;;5044536;28;20485;-68
2022/11/04 02:02:21;;;;;;;10.47;7.50;;;9.10;99.90;;;;;;5044000;28;20527;-69
2022/11/04 02:04:48;;;;;;;8.27;7.57;;;9.10;99.90;;;;;;5044075;28;20753;-69
2022/11/04 02:07:15;;;;;;;8.83;7.70;;;9.00;99.90;;;;;;5043012;28;20815;-67
2022/11/04 02:09:43;;;;;;;8.47;7.77;;;9.00;99.90;;;;;;5041915;28;20467;-68
2022/11/04 02:14:58;;;;;;;7.80;7.10;;;8.90;99.90;;;;;;5042839;28;20479;-68
2022/11/04 02:17:37;;;;;;;7.30;6.90;;;8.90;99.90;;;;;;5044113;28;20468;-69
2022/11/04 02:20:29;;;;;;;8.13;7.57;;;8.90;99.90;;;;;;5044917;28;20490;-69
2022/11/04 02:23:39;;;;;;;8.17;7.47;;;8.90;99.90;;;;;;5045650;28;20575;-68
2022/11/04 02:26:44;;;;;;;7.90;7.40;;;8.80;99.90;;;;;;5044976;28;20786;-68
2022/11/04 02:29:33;;;;;;;6.67;6.27;;;8.80;99.90;;;;;;5014421;28;20891;-68
2022/11/04 02:32:09;;;;;;;7.67;6.90;;;8.70;99.90;;;;;;5041055;28;20894;-67
2022/11/04 02:34:43;;;;;;;7.83;7.17;;;8.70;99.90;;;;;;5044443;28;20483;-69
2022/11/04 02:37:22;;;;;;;8.13;7.33;;;8.70;99.90;;;;;;5048011;28;20467;-68
2022/11/04 02:39:55;;;;;;;7.90;7.17;;;8.70;99.90;;;;;;5048426;28;20817;-68
2022/11/04 02:42:30;;;;;;;7.63;7.13;;;8.70;99.90;;;;;;5045268;28;20543;-68
2022/11/04 02:45:11;;;;;;;8.00;7.20;;;8.60;99.90;;;;;;5048335;28;20466;-69
2022/11/04 02:47:43;;;;;;;8.07;7.37;;;8.60;99.90;;;;;;5046160;28;20456;-68
2022/11/04 02:50:15;;;;;;;10.30;9.23;;;8.60;99.90;;;;;;5047486;28;20810;-67
2022/11/04 02:52:48;;;;;;;8.53;7.87;;;8.60;99.90;;;;;;5048415;28;20828;-67
2022/11/04 02:55:20;;;;;;;16.20;8.40;;;8.50;99.90;;;;;;5049082;28;20590;-68
2022/11/04 02:57:50;;;;;;;13.20;8.47;;;8.50;99.90;;;;;;5048833;28;20479;-67
2022/11/04 03:00:20;;;;;;;9.20;7.80;;;8.50;99.90;;;;;;5046120;28;20475;-67
2022/11/04 03:02:52;;;;;;;9.13;7.90;;;8.50;99.90;;;;;;5044157;28;21039;-68
2022/11/04 03:05:27;;;;;;;8.20;7.60;;;8.40;99.90;;;;;;5045042;28;20463;-67
2022/11/04 03:07:57;;;;;;;10.20;7.90;;;8.40;99.90;;;;;;5037721;28;20466;-67
2022/11/04 03:10:31;;;;;;;9.63;8.17;;;8.40;99.90;;;;;;5045767;28;21052;-67
2022/11/04 03:13:05;;;;;;;7.80;7.40;;;8.40;99.90;;;;;;5047593;28;20533;-68
2022/11/04 03:15:35;;;;;;;13.47;7.50;;;8.30;99.90;;;;;;5048634;28;20482;-67
2022/11/04 03:18:13;;;;;;;8.07;7.23;;;8.30;99.90;;;;;;5046561;28;20954;-68
2022/11/04 03:20:42;;;;;;;10.37;7.80;;;8.30;99.90;;;;;;5046521;28;20479;-67
2022/11/04 03:23:10;;;;;;;16.40;8.53;;;8.30;99.90;;;;;;5043905;28;20714;-67
2022/11/04 03:25:41;;;;;;;13.00;8.00;;;8.20;99.90;;;;;;5048780;28;20475;-67
2022/11/04 03:28:19;;;;;;;8.90;8.10;;;8.20;99.90;;;;;;5044576;28;20491;-67
2022/11/04 03:30:51;;;;;;;9.17;8.20;;;8.20;99.90;;;;;;5046107;28;20483;-67
2022/11/04 03:33:25;;;;;;;11.77;8.00;;;8.20;99.90;;;;;;5043993;28;20491;-67
2022/11/04 03:35:53;;;;;;;12.97;8.03;;;8.20;99.90;;;;;;5042752;28;20490;-67
2022/11/04 03:38:20;;;;;;;11.03;8.17;;;8.20;99.90;;;;;;5048356;28;20881;-68
2022/11/04 03:40:47;;;;;;;9.07;8.27;;;8.20;99.90;;;;;;5049210;28;20468;-68
2022/11/04 03:43:19;;;;;;;13.30;8.63;;;8.30;99.90;;;;;;5043152;28;20464;-68
2022/11/04 03:45:47;;;;;;;12.33;8.43;;;8.30;99.90;;;;;;5047387;28;20469;-68
2022/11/04 03:48:14;;;;;;;9.00;8.40;;;8.30;99.90;;;;;;5044559;28;20922;-67
2022/11/04 03:50:43;;;;;;;15.03;9.10;;;8.30;99.90;;;;;;5046465;28;20846;-67
2022/11/04 03:53:11;;;;;;;8.70;7.90;;;8.30;99.90;;;;;;5051581;28;20819;-67
2022/11/04 03:55:49;;;;;;;9.30;8.60;;;8.30;99.90;;;;;;5049091;28;20467;-67
2022/11/04 03:58:27;;;;;;;17.50;9.57;;;8.30;99.90;;;;;;5045333;28;20474;-67
2022/11/04 04:01:00;;;;;;;8.80;7.97;;;8.30;99.90;;;;;;5042202;28;20484;-68
2022/11/04 04:03:32;;;;;;;12.03;8.60;;;8.30;99.90;;;;;;5046384;28;20541;-68
2022/11/04 04:06:08;;;;;;;10.93;9.27;;;8.30;99.90;;;;;;5043282;28;20591;-67
2022/11/04 04:08:40;;;;;;;17.63;9.40;;;8.20;99.90;;;;;;5047963;28;20816;-67
2022/11/04 04:11:15;;;;;;;12.40;8.70;;;8.20;99.90;;;;;;5048313;28;20486;-67
2022/11/04 04:13:45;;;;;;;9.17;8.37;;;8.20;99.90;;;;;;5047395;28;20468;-67
2022/11/04 04:16:18;;;;;;;14.57;8.77;;;8.20;99.90;;;;;;5043465;28;20459;-67
2022/11/04 04:18:49;;;;;;;9.87;8.87;;;8.10;99.90;;;;;;5046605;28;20460;-67
2022/11/04 04:21:21;;;;;;;12.33;9.50;;;8.10;99.90;;;;;;5047353;28;20467;-68
2022/11/04 04:29:23;;;;;;;9.77;9.17;;;8.10;99.90;;;;;;5046290;28;20617;-67
2022/11/04 04:31:56;;;;;;;10.77;9.70;;;8.00;99.90;;;;;;5044945;28;20852;-67
2022/11/04 04:34:25;;;;;;;10.57;9.70;;;7.90;99.90;;;;;;5047070;28;21264;-67
2022/11/04 04:36:57;;;;;;;10.40;9.60;;;7.90;99.90;;;;;;5047142;28;20479;-67
2022/11/04 04:44:59;;;;;;;11.10;10.20;;;7.40;99.90;;;;;;5046196;28;20567;-68
2022/11/04 04:47:35;;;;;;;11.67;10.80;;;7.30;99.90;;;;;;5045728;28;20958;-69
2022/11/04 04:50:02;;;;;;;12.27;11.20;;;7.20;99.90;;;;;;5046101;28;20462;-68
2022/11/04 04:52:33;;;;;;;12.60;11.47;;;7.10;99.90;;;;;;5038364;28;20495;-69
2022/11/04 04:55:01;;;;;;;12.93;11.87;;;7.10;99.90;;;;;;5045830;28;20464;-68
2022/11/04 04:57:27;;;;;;;12.77;11.80;;;7.10;99.90;;;;;;5047313;28;20550;-68
2022/11/04 04:59:54;;;;;;;12.27;11.20;;;7.00;99.90;;;;;;5046659;28;20476;-67
2022/11/04 05:02:22;;;;;;;13.80;12.43;;;6.90;99.90;;;;;;5037688;28;20464;-67
2022/11/04 05:04:49;;;;;;;12.63;11.73;;;6.90;99.90;;;;;;5043478;28;20458;-69
2022/11/04 05:07:17;;;;;;;14.63;12.17;;;6.80;99.90;;;;;;5045556;28;20462;-67
2022/11/04 05:09:45;;;;;;;12.57;11.73;;;6.70;99.90;;;;;;5043671;28;20490;-67
2022/11/04 05:12:12;;;;;;;12.60;11.43;;;6.70;99.90;;;;;;5045766;28;20484;-67
2022/11/04 05:14:39;;;;;;;13.83;12.67;;;6.60;99.90;;;;;;5042658;28;20455;-67
2022/11/04 05:17:06;;;;;;;12.13;11.33;;;6.60;99.90;;;;;;5046341;28;20972;-67
2022/11/04 05:19:33;;;;;;;13.77;12.77;;;6.60;99.90;;;;;;5044202;28;20478;-67
2022/11/04 05:22:01;;;;;;;13.00;12.20;;;6.60;99.90;;;;;;5043114;28;20551;-67
2022/11/04 05:24:28;;;;;;;19.27;12.87;;;6.60;99.90;;;;;;5036908;28;20486;-67
2022/11/04 05:26:55;;;;;;;13.27;12.37;;;6.60;99.90;;;;;;5045432;28;20462;-67
2022/11/04 05:29:22;;;;;;;13.17;12.07;;;6.60;99.90;;;;;;5046599;28;20486;-67
2022/11/04 05:31:49;;;;;;;15.50;12.23;;;6.70;99.90;;;;;;5039060;28;20852;-67
2022/11/04 05:34:16;;;;;;;16.17;12.70;;;6.80;99.90;;;;;;5041593;28;20565;-67
2022/11/04 05:36:44;;;;;;;25.70;13.07;;;6.80;99.90;;;;;;5044941;28;20470;-67
2022/11/04 05:39:13;;;;;;;14.43;12.97;;;6.80;99.90;;;;;;5044734;28;20479;-67
2022/11/04 05:41:41;;;;;;;14.60;13.20;;;6.80;99.90;;;;;;5039823;28;20464;-67
2022/11/04 05:44:10;;;;;;;14.17;12.93;;;6.80;99.90;;;;;;5044217;28;20557;-67
2022/11/04 05:46:37;;;;;;;17.07;13.47;;;6.80;99.90;;;;;;5044561;28;20463;-68
2022/11/04 05:49:04;;;;;;;14.03;12.87;;;6.70;99.90;;;;;;5044328;28;20467;-68
2022/11/04 05:51:31;;;;;;;14.87;13.37;;;6.70;99.90;;;;;;5043837;28;20485;-67
2022/11/04 05:53:58;;;;;;;15.40;13.77;;;6.60;99.90;;;;;;5046470;28;20502;-67
2022/11/04 05:56:27;;;;;;;14.90;13.70;;;6.60;99.90;;;;;;5044028;28;20464;-67
2022/11/04 05:58:54;;;;;;;15.90;14.40;;;6.50;99.90;;;;;;5043009;28;20858;-67
2022/11/04 06:01:28;;;;;;;16.00;14.50;;;6.50;99.90;;;;;;5041549;28;20477;-67
2022/11/04 06:03:55;;;;;;;16.30;14.47;;;6.50;99.90;;;;;;5038087;28;20959;-67
2022/11/04 06:06:23;;;;;;;14.57;13.17;;;6.60;99.90;;;;;;5043335;28;20463;-68
2022/11/04 06:08:52;;;;;;;15.77;14.37;;;6.60;99.90;;;;;;5042977;28;20475;-68
2022/11/04 06:11:20;;;;;;;17.03;15.23;;;6.60;99.90;;;;;;5041959;28;20484;-68
2022/11/04 06:13:48;;;;;;;15.17;14.07;;;6.60;99.90;;;;;;5042337;28;20467;-67
2022/11/04 06:16:15;;;;;;;16.30;14.90;;;6.60;99.90;;;;;;5041394;28;21309;-67
2022/11/04 06:18:42;;;;;;;19.03;15.90;;;6.50;99.90;;;;;;5039664;28;20540;-67
2022/11/04 06:21:20;;;;;;;16.53;14.77;;;6.50;99.90;;;;;;5041986;28;20467;-67
2022/11/04 06:23:48;;;;;;;17.30;15.70;;;6.50;99.90;;;;;;5043756;28;20464;-68
2022/11/04 06:26:17;;;;;;;17.20;15.80;;;6.60;99.90;;;;;;5040390;28;21019;-67
2022/11/04 06:28:43;;;;;;;20.23;17.43;;;6.80;99.90;;;;;;5045157;28;20495;-67
2022/11/04 06:31:14;;;;;;;16.93;15.00;;;7.00;99.90;;;;;;5040330;28;20464;-68
2022/11/04 06:33:41;;;;;;;14.87;13.77;;;7.30;99.90;;;;;;5041714;28;20509;-67
2022/11/04 06:36:12;;;;;;;14.77;13.40;;;7.60;99.90;;;;;;5041578;28;20475;-67
2022/11/04 06:38:39;;;;;;;16.43;14.77;;;7.70;99.90;;;;;;5034490;28;20471;-67
2022/11/04 06:41:08;;;;;;;16.70;14.67;;;7.80;99.90;;;;;;5033666;28;20495;-67
2022/11/04 06:43:34;;;;;;;14.23;13.33;;;7.90;99.90;;;;;;5037632;28;20829;-67
2022/11/04 06:46:03;;;;;;;14.03;12.93;;;8.00;99.90;;;;;;5038153;28;20493;-67
2022/11/04 06:48:31;;;;;;;14.20;13.10;;;8.10;99.90;;;;;;5040904;28;20521;-67
2022/11/04 06:50:58;;;;;;;13.47;12.47;;;8.20;99.90;;;;;;5036987;28;20490;-68
2022/11/04 06:53:25;;;;;;;14.77;13.47;;;8.30;99.90;;;;;;5043524;28;20864;-67
2022/11/04 06:55:54;;;;;;;14.57;13.47;;;8.40;99.90;;;;;;5042676;28;20460;-68
2022/11/04 06:58:21;;;;;;;14.43;12.53;;;8.50;99.90;;;;;;5042218;28;20506;-68
2022/11/04 07:00:52;;;;;;;14.57;13.20;;;8.50;99.90;;;;;;5040005;28;20859;-67
2022/11/04 07:03:20;;;;;;;15.03;13.40;;;8.50;99.90;;;;;;5041799;28;20458;-68
2022/11/04 07:05:48;;;;;;;13.67;12.77;;;8.50;99.90;;;;;;5041987;28;20459;-68
2022/11/04 07:08:15;;;;;;;14.23;12.80;;;8.60;99.90;;;;;;5039545;28;20554;-67
2022/11/04 07:10:42;;;;;;;18.80;12.97;;;8.60;99.90;;;;;;5041122;28;20468;-67
2022/11/04 07:13:09;;;;;;;18.57;13.10;;;8.60;99.90;;;;;;5042271;28;20486;-68
2022/11/04 07:15:38;;;;;;;16.77;14.00;;;8.70;99.90;;;;;;5039530;28;20460;-68
2022/11/04 07:18:05;;;;;;;18.83;15.53;;;8.80;99.90;;;;;;5042199;28;20548;-67
2022/11/04 07:20:32;;;;;;;13.70;12.67;;;8.80;99.90;;;;;;5040606;28;20535;-68
2022/11/04 07:23:00;;;;;;;15.30;14.13;;;8.90;99.90;;;;;;5043542;28;20823;-67
2022/11/04 07:25:27;;;;;;;16.63;13.80;;;8.90;99.90;;;;;;5041325;28;21183;-68
2022/11/04 07:27:54;;;;;;;15.20;13.17;;;8.90;99.90;;;;;;5046196;28;20488;-67
2022/11/04 07:30:21;;;;;;;15.37;14.03;;;9.00;99.90;;;;;;5041053;28;20802;-68
2022/11/04 07:32:48;;;;;;;13.97;12.50;;;9.10;99.90;;;;;;5031123;28;20487;-68
2022/11/04 07:35:14;;;;;;;13.77;12.67;;;9.20;99.90;;;;;;5038280;28;20856;-68
2022/11/04 07:37:41;;;;;;;21.63;14.40;;;9.20;99.90;;;;;;5042162;28;20970;-67
2022/11/04 07:40:11;;;;;;;21.67;13.87;;;9.30;99.90;;;;;;5035403;28;20471;-67
2022/11/04 07:42:38;;;;;;;27.47;15.47;;;9.30;99.90;;;;;;5031946;28;20491;-67
2022/11/04 07:45:05;;;;;;;17.00;14.77;;;9.30;99.90;;;;;;5032399;28;20465;-68
2022/11/04 07:47:32;;;;;;;22.63;14.20;;;9.40;99.90;;;;;;5036994;28;20459;-68
2022/11/04 07:49:59;;;;;;;16.63;13.13;;;9.40;99.90;;;;;;5032491;28;20865;-68
2022/11/04 07:52:26;;;;;;;15.80;14.10;;;9.40;99.90;;;;;;5033062;28;20491;-68
2022/11/04 07:54:53;;;;;;;14.33;12.20;;;9.40;99.90;;;;;;5041134;28;20463;-67
2022/11/04 07:57:21;;;;;;;19.10;12.50;;;9.50;99.90;;;;;;5040973;28;20844;-69
2022/11/04 07:59:48;;;;;;;15.60;13.00;;;9.40;99.90;;;;;;5033581;28;20870;-68
2022/11/04 08:02:16;;;;;;;16.27;12.03;;;9.40;99.90;;;;;;5040483;28;20883;-68
2022/11/04 08:04:42;;;;;;;18.33;12.20;;;9.40;99.90;;;;;;5037714;28;20468;-68
2022/11/04 08:07:10;;;;;;;17.03;12.47;;;9.40;99.90;;;;;;5041509;28;20541;-70
2022/11/04 08:09:37;;;;;;;22.40;11.30;;;9.40;99.90;;;;;;5039755;28;20564;-67
2022/11/04 08:12:05;;;;;;;14.13;11.50;;;9.30;99.90;;;;;;5039633;28;20490;-70
2022/11/04 08:14:33;;;;;;;23.77;11.90;;;9.40;99.90;;;;;;5042016;28;20529;-70
2022/11/04 08:17:00;;;;;;;27.97;11.77;;;9.50;99.90;;;;;;5039654;28;20474;-69
2022/11/04 08:19:27;;;;;;;17.00;11.87;;;9.40;99.90;;;;;;5039643;28;20467;-70
2022/11/04 08:21:54;;;;;;;26.77;11.17;;;9.50;99.90;;;;;;5039616;28;20467;-69
2022/11/04 08:24:21;;;;;;;20.07;12.13;;;9.60;99.90;;;;;;5038507;28;20468;-70
2022/11/04 08:26:48;;;;;;;16.63;11.70;;;9.70;99.90;;;;;;5042427;28;20471;-68
2022/11/04 08:29:15;;;;;;;20.57;11.83;;;9.80;99.90;;;;;;5035645;28;20479;-68
2022/11/04 08:31:43;;;;;;;27.13;11.90;;;9.80;99.90;;;;;;5040626;28;20468;-68
2022/11/04 08:34:13;;;;;;;24.13;12.10;;;9.90;99.90;;;;;;5042898;28;20487;-70
2022/11/04 08:36:40;;;;;;;23.57;11.87;;;10.00;99.90;;;;;;5042460;28;20508;-68
2022/11/04 08:39:09;;;;;;;22.80;12.37;;;10.20;99.90;;;;;;5040562;28;20468;-69
2022/11/04 08:41:37;;;;;;;34.57;13.00;;;10.30;99.90;;;;;;5032021;28;20545;-68
2022/11/04 08:44:05;;;;;;;19.03;12.70;;;10.30;99.90;;;;;;5033658;28;20529;-67
2022/11/04 08:46:34;;;;;;;17.07;12.47;;;10.30;99.90;;;;;;5038105;28;20460;-68
2022/11/04 08:49:02;;;;;;;32.07;13.77;;;10.30;99.90;;;;;;5040068;28;20479;-67
2022/11/04 08:51:31;;;;;;;25.73;12.37;;;10.30;99.90;;;;;;5035819;28;20476;-68
2022/11/04 08:53:58;;;;;;;25.73;13.93;;;10.40;99.90;;;;;;5042678;28;20582;-68
2022/11/04 08:56:27;;;;;;;21.57;14.07;;;10.30;99.90;;;;;;5040672;28;20569;-68
2022/11/04 08:58:55;;;;;;;19.73;12.90;;;10.30;99.90;;;;;;5040720;28;20454;-70
2022/11/04 09:01:22;;;;;;;22.60;12.60;;;10.40;99.90;;;;;;5038900;28;21163;-69
2022/11/04 09:03:49;;;;;;;22.67;13.47;;;10.50;99.90;;;;;;5042214;28;20460;-69
2022/11/04 09:06:20;;;;;;;20.67;13.00;;;10.50;99.90;;;;;;5039780;28;20533;-68
2022/11/04 09:08:47;;;;;;;17.90;12.63;;;10.70;99.90;;;;;;5042591;28;20614;-67
2022/11/04 09:11:15;;;;;;;13.33;12.03;;;10.90;99.90;;;;;;5041642;28;20468;-69
2022/11/04 09:13:42;;;;;;;15.70;12.90;;;11.10;99.90;;;;;;5042775;28;20491;-68
2022/11/04 09:16:12;;;;;;;12.80;11.60;;;11.30;99.90;;;;;;5040863;28;20456;-69
2022/11/04 09:18:39;;;;;;;17.23;12.20;;;11.60;99.90;;;;;;5040288;28;20960;-70
2022/11/04 09:21:07;;;;;;;20.20;12.33;;;11.80;99.90;;;;;;5037253;28;20460;-68
2022/11/04 09:23:36;;;;;;;16.20;12.27;;;12.20;99.90;;;;;;5038391;28;20460;-70
2022/11/04 09:26:06;;;;;;;14.77;13.03;;;12.40;99.90;;;;;;5039627;28;20727;-68
2022/11/04 09:28:33;;;;;;;15.90;12.70;;;12.60;99.90;;;;;;5039015;28;20491;-69
2022/11/04 09:31:03;;;;;;;15.60;14.00;;;12.80;99.90;;;;;;5041168;28;20480;-68
2022/11/04 09:33:31;;;;;;;19.20;12.70;;;12.90;99.90;;;;;;5039260;28;20506;-69
2022/11/04 09:35:59;;;;;;;17.43;13.83;;;12.90;99.90;;;;;;5038771;28;20472;-69
2022/11/04 09:38:26;;;;;;;18.17;14.77;;;12.90;99.90;;;;;;5041489;28;20460;-69
2022/11/04 09:40:54;;;;;;;14.53;13.43;;;12.80;99.90;;;;;;5042594;28;20451;-69
2022/11/04 09:43:33;;;;;;;15.70;13.67;;;12.80;99.90;;;;;;5037747;28;20557;-69
2022/11/04 09:46:02;;;;;;;16.00;14.20;;;12.70;99.90;;;;;;5036504;28;20472;-69
2022/11/04 09:48:33;;;;;;;15.93;14.37;;;12.70;99.90;;;;;;5038868;28;20823;-68
2022/11/04 09:51:04;;;;;;;20.13;15.53;;;12.60;99.90;;;;;;5038697;28;20460;-70
2022/11/04 09:53:40;;;;;;;15.17;14.07;;;12.60;99.90;;;;;;5039202;28;20496;-69
2022/11/04 09:56:15;;;;;;;16.80;15.37;;;12.70;99.90;;;;;;5036707;28;20490;-69
2022/11/04 09:58:43;;;;;;;18.23;15.40;;;12.80;99.90;;;;;;5037571;28;20661;-69
2022/11/04 10:01:20;;;;;;;16.47;14.80;;;13.00;99.90;;;;;;5038583;28;20460;-71
2022/11/04 10:03:59;;;;;;;25.70;14.90;;;13.10;99.90;;;;;;5039986;28;20559;-69
2022/11/04 10:06:36;;;;;;;17.43;15.20;;;13.50;99.90;;;;;;5038344;28;20460;-69
2022/11/04 10:09:13;;;;;;;18.53;15.40;;;13.60;99.90;;;;;;5038197;28;20859;-69
2022/11/04 10:11:48;;;;;;;15.20;14.10;;;13.50;99.90;;;;;;5037744;28;20816;-69
2022/11/04 10:14:27;;;;;;;16.67;14.93;;;13.40;99.90;;;;;;5034542;28;20682;-69
2022/11/04 10:17:04;;;;;;;15.20;13.93;;;13.20;99.90;;;;;;5039709;28;20995;-68
2022/11/04 10:19:46;;;;;;;15.30;13.73;;;13.20;99.90;;;;;;5032933;28;20474;-69
2022/11/04 10:22:21;;;;;;;16.80;15.10;;;13.20;99.90;;;;;;5036382;28;20478;-68
2022/11/04 10:24:59;;;;;;;15.07;13.97;;;13.20;99.90;;;;;;5038765;28;20887;-69
2022/11/04 10:27:31;;;;;;;15.80;14.40;;;12.80;99.90;;;;;;5039313;28;20464;-68
2022/11/04 10:30:01;;;;;;;15.27;13.90;;;12.80;99.90;;;;;;5038449;28;20480;-69
2022/11/04 10:32:33;;;;;;;15.60;14.37;;;12.90;99.90;;;;;;5039485;28;20471;-69
2022/11/04 10:35:04;;;;;;;14.13;13.33;;;13.00;99.90;;;;;;5037775;28;20833;-70
2022/11/04 10:37:31;;;;;;;14.70;13.37;;;13.50;99.90;;;;;;5035095;28;20795;-70
2022/11/04 10:40:16;;;;;;;15.40;14.20;;;14.20;99.90;;;;;;5041227;28;20510;-69
2022/11/04 10:42:44;;;;;;;15.47;14.17;;;15.10;99.90;;;;;;5036965;28;20473;-70
2022/11/04 10:45:12;;;;;;;14.53;13.33;;;15.00;99.90;;;;;;5039392;28;21046;-69
2022/11/04 10:47:46;;;;;;;14.17;13.37;;;15.00;99.90;;;;;;5038535;28;20495;-69
2022/11/04 10:50:26;;;;;;;15.03;13.93;;;15.10;99.90;;;;;;5040219;28;21835;-69
2022/11/04 10:52:56;;;;;;;14.90;14.10;;;15.30;99.90;;;;;;5034710;28;20577;-70
2022/11/04 10:55:39;;;;;;;14.70;13.53;;;15.70;99.90;;;;;;5039478;28;20464;-69
2022/11/04 10:58:15;;;;;;;15.97;14.73;;;16.30;99.90;;;;;;5035553;28;20464;-69
2022/11/04 11:00:42;;;;;;;15.43;14.00;;;16.40;99.90;;;;;;5041377;28;20844;-71
2022/11/04 11:03:24;;;;;;;15.63;14.27;;;15.90;99.90;;;;;;5038190;28;20471;-68
2022/11/04 11:05:52;;;;;;;16.30;14.77;;;15.50;99.90;;;;;;5041704;28;20755;-68
2022/11/04 11:08:31;;;;;;;15.87;14.57;;;15.70;99.90;;;;;;5033641;28;20457;-71
2022/11/04 11:10:58;;;;;;;16.30;15.07;;;15.70;99.90;;;;;;5033252;28;20447;-69
2022/11/04 11:13:27;;;;;;;15.83;14.70;;;16.10;99.90;;;;;;5040298;28;20490;-69
2022/11/04 11:16:07;;;;;;;16.23;15.33;;;16.60;99.90;;;;;;5042831;28;20447;-69
2022/11/04 11:18:36;;;;;;;15.23;14.30;;;17.20;99.90;;;;;;5033673;28;20471;-69
2022/11/04 11:21:12;;;;;;;16.27;15.00;;;17.70;99.90;;;;;;5041521;28;20459;-68
2022/11/04 11:23:42;;;;;;;16.57;15.47;;;18.50;99.90;;;;;;5036835;28;20613;-68
2022/11/04 11:26:11;;;;;;;17.00;15.53;;;17.90;99.90;;;;;;5043667;28;20974;-68
2022/11/04 11:28:41;;;;;;;16.63;15.23;;;17.80;99.90;;;;;;5039043;28;20499;-68
2022/11/04 11:31:15;;;;;;;15.73;14.73;;;17.20;99.90;;;;;;5044017;28;20455;-69
2022/11/04 11:33:48;;;;;;;17.70;16.13;;;16.00;99.90;;;;;;5043391;28;20526;-68
2022/11/04 11:36:19;;;;;;;16.77;15.70;;;16.00;99.90;;;;;;5042224;28;20510;-69
2022/11/04 11:38:59;;;;;;;16.60;15.20;;;15.80;99.90;;;;;;5041076;28;20474;-71
2022/11/04 11:41:33;;;;;;;16.10;15.17;;;15.50;99.90;;;;;;5031648;28;20463;-68
2022/11/04 11:44:06;;;;;;;16.10;14.80;;;15.00;99.90;;;;;;5040111;28;20468;-68
2022/11/04 11:46:37;;;;;;;16.73;15.53;;;14.70;99.90;;;;;;5037374;28;20472;-69
2022/11/04 11:49:05;;;;;;;17.37;16.20;;;14.40;99.90;;;;;;5040307;28;20456;-70
2022/11/04 11:51:34;;;;;;;16.03;14.87;;;13.90;99.90;;;;;;5040367;28;20850;-71
2022/11/04 11:54:15;;;;;;;14.40;13.60;;;13.80;99.90;;;;;;5041077;28;20549;-68
2022/11/04 11:56:45;;;;;;;16.43;15.10;;;13.70;99.90;;;;;;5038236;28;20467;-68
2022/11/04 11:59:21;;;;;;;15.30;14.50;;;13.60;99.90;;;;;;5039701;28;21136;-68
2022/11/04 12:01:52;;;;;;;15.50;14.30;;;13.40;99.90;;;;;;5039316;28;20463;-69
2022/11/04 12:04:19;;;;;;;15.23;13.80;;;13.30;99.90;;;;;;5042078;28;21093;-68
2022/11/04 12:06:55;;;;;;;15.73;14.57;;;13.40;99.90;;;;;;5040089;28;20585;-68
2022/11/04 12:09:34;;;;;;;15.27;13.97;;;13.50;99.90;;;;;;5041754;28;20608;-69
2022/11/04 12:12:15;;;;;;;16.07;14.53;;;13.60;99.90;;;;;;5041051;28;20470;-68
2022/11/04 12:14:56;;;;;;;14.27;13.47;;;13.60;99.90;;;;;;5041430;28;20526;-68
2022/11/04 12:17:35;;;;;;;15.90;14.13;;;13.80;99.90;;;;;;5042064;28;20545;-68
2022/11/04 12:20:18;;;;;;;15.60;14.60;;;13.70;99.90;;;;;;5042363;28;20463;-68
2022/11/04 12:22:54;;;;;;;16.17;14.87;;;13.70;99.90;;;;;;5039222;28;21053;-68
2022/11/04 12:25:27;;;;;;;15.17;14.17;;;13.80;99.90;;;;;;5042579;28;20806;-67
2022/11/04 12:28:03;;;;;;;14.73;13.67;;;13.80;99.90;;;;;;5042491;28;20498;-68
2022/11/04 12:30:38;;;;;;;17.43;15.80;;;13.90;99.90;;;;;;5038987;28;20499;-69
2022/11/04 12:33:21;;;;;;;15.87;14.67;;;14.10;99.90;;;;;;5035429;28;20487;-70
2022/11/04 12:36:02;;;;;;;16.17;14.93;;;14.20;99.90;;;;;;5039478;28;20460;-70
2022/11/04 12:38:40;;;;;;;17.63;16.23;;;14.30;99.90;;;;;;5040093;28;20534;-70
2022/11/04 12:41:17;;;;;;;15.57;14.37;;;14.30;99.90;;;;;;5038179;28;20463;-68
2022/11/04 12:43:55;;;;;;;15.77;14.57;;;14.20;99.90;;;;;;5041661;28;20470;-70
2022/11/04 12:46:32;;;;;;;15.23;14.40;;;14.20;99.90;;;;;;5039480;28;20478;-70
2022/11/04 12:49:15;;;;;;;15.30;14.20;;;14.20;99.90;;;;;;5037718;28;20498;-68
2022/11/04 12:51:49;;;;;;;16.80;15.50;;;14.30;99.90;;;;;;5041034;28;20460;-68
2022/11/04 12:54:31;;;;;;;16.00;14.60;;;14.40;99.90;;;;;;5041311;28;20515;-69
2022/11/04 12:57:07;;;;;;;16.43;15.03;;;14.40;99.90;;;;;;5040323;28;20471;-69
2022/11/04 12:59:51;;;;;;;16.67;15.27;;;14.20;99.90;;;;;;5037712;28;20464;-68
2022/11/04 13:02:25;;;;;;;15.67;14.40;;;14.10;99.90;;;;;;5038380;28;20871;-68
2022/11/04 13:05:00;;;;;;;15.67;14.67;;;14.10;99.90;;;;;;5038140;28;20838;-70
2022/11/04 13:07:33;;;;;;;15.80;14.70;;;14.00;99.90;;;;;;5030997;28;20463;-68
2022/11/04 13:10:05;;;;;;;15.80;14.40;;;14.00;99.90;;;;;;5036249;28;20497;-69
2022/11/04 13:12:37;;;;;;;17.13;15.50;;;14.00;99.90;;;;;;5038912;28;20588;-69
2022/11/04 13:15:14;;;;;;;15.03;13.97;;;13.90;99.90;;;;;;5034601;28;20538;-68
2022/11/04 13:17:44;;;;;;;14.63;13.53;;;14.00;99.90;;;;;;5037040;28;20470;-71
2022/11/04 13:20:20;;;;;;;15.67;14.50;;;14.50;99.90;;;;;;5036499;28;20476;-70
2022/11/04 13:22:51;;;;;;;16.13;14.57;;;14.80;99.90;;;;;;5038137;28;20829;-68
2022/11/04 13:25:27;;;;;;;16.77;15.27;;;14.70;99.90;;;;;;5040236;28;20652;-68
2022/11/04 13:27:53;;;;;;;15.20;14.20;;;14.70;99.90;;;;;;5038089;28;20483;-69